createdAt,value
2022-11-21T00:01:20.197Z,49.00
2022-11-21T00:03:48.380Z,48.80
2022-11-21T00:06:16.791Z,48.90
2022-11-21T00:08:45.138Z,48.90
2022-11-21T00:11:13.459Z,48.90
2022-11-21T00:13:41.730Z,49.10
2022-11-21T00:16:13.489Z,48.90
2022-11-21T00:18:42.365Z,48.80
2022-11-21T00:21:13.911Z,48.80
2022-11-21T00:23:42.149Z,48.80
2022-11-21T00:26:12.129Z,48.70
2022-11-21T00:28:40.211Z,48.80
2022-11-21T00:31:11.134Z,48.70
2022-11-21T00:33:39.756Z,48.60
2022-11-21T00:36:09.128Z,48.70
2022-11-21T00:38:37.649Z,48.60
2022-11-21T00:41:06.114Z,48.60
2022-11-21T00:43:34.454Z,48.60
2022-11-21T00:46:03.075Z,48.60
2022-11-21T00:48:33.363Z,48.80
2022-11-21T00:51:01.966Z,49.10
2022-11-21T00:53:30.794Z,49.20
2022-11-21T00:55:59.339Z,49.10
2022-11-21T00:58:27.643Z,49.10
2022-11-21T01:01:05.223Z,49.10
2022-11-21T01:03:35.498Z,49.20
2022-11-21T01:06:05.381Z,49.10
2022-11-21T01:08:35.266Z,49.10
2022-11-21T01:11:07.099Z,49.20
2022-11-21T01:13:35.775Z,49.10
2022-11-21T01:16:05.618Z,49.10
2022-11-21T01:18:35.193Z,49.10
2022-11-21T01:21:04.161Z,49.10
2022-11-21T01:23:32.464Z,49.10
2022-11-21T01:26:03.653Z,49.10
2022-11-21T01:28:32.099Z,49.00
2022-11-21T01:31:05.879Z,49.00
2022-11-21T01:33:35.734Z,49.00
2022-11-21T01:36:11.368Z,49.00
2022-11-21T01:38:39.862Z,49.00
2022-11-21T01:41:08.526Z,48.10
2022-11-21T01:43:36.773Z,48.40
2022-11-21T01:46:12.112Z,48.20
2022-11-21T01:48:47.105Z,48.40
2022-11-21T01:51:19.852Z,48.50
2022-11-21T01:53:51.618Z,48.60
2022-11-21T01:56:20.347Z,48.60
2022-11-21T01:58:50.759Z,48.50
2022-11-21T02:01:19.410Z,48.40
2022-11-21T02:03:49.609Z,48.40
2022-11-21T02:06:17.699Z,48.40
2022-11-21T02:08:46.770Z,48.40
2022-11-21T02:11:28.644Z,48.40
2022-11-21T02:13:57.357Z,48.40
2022-11-21T02:16:26.665Z,48.20
2022-11-21T02:18:56.338Z,48.20
2022-11-21T02:21:33.986Z,48.10
2022-11-21T02:24:06.361Z,48.10
2022-11-21T02:26:36.779Z,48.10
2022-11-21T02:29:04.854Z,47.90
2022-11-21T02:31:32.897Z,47.90
2022-11-21T02:34:00.969Z,47.90
2022-11-21T02:36:37.626Z,48.00
2022-11-21T02:39:07.064Z,48.00
2022-11-21T02:41:38.834Z,48.00
2022-11-21T02:44:14.316Z,47.90
2022-11-21T02:46:49.852Z,47.90
2022-11-21T02:49:23.060Z,48.10
2022-11-21T02:51:51.115Z,47.90
2022-11-21T02:54:19.192Z,47.90
2022-11-21T02:56:48.635Z,47.70
2022-11-21T02:59:16.710Z,47.60
2022-11-21T03:01:44.771Z,47.50
2022-11-21T03:04:12.850Z,47.60
2022-11-21T03:06:40.894Z,47.60
2022-11-21T03:09:08.968Z,47.60
2022-11-21T03:11:37.008Z,47.40
2022-11-21T03:14:06.418Z,47.40
2022-11-21T03:16:34.476Z,47.20
2022-11-21T03:19:02.684Z,47.10
2022-11-21T03:21:30.722Z,47.10
2022-11-21T03:23:58.783Z,47.10
2022-11-21T03:26:26.861Z,47.00
2022-11-21T03:28:54.927Z,47.10
2022-11-21T03:31:24.321Z,46.90
2022-11-21T03:33:52.358Z,46.90
2022-11-21T03:36:20.435Z,46.40
2022-11-21T03:38:48.491Z,46.40
2022-11-21T03:41:36.261Z,46.80
2022-11-21T03:44:07.325Z,46.50
2022-11-21T03:46:38.470Z,47.30
2022-11-21T03:49:06.899Z,46.80
2022-11-21T03:51:35.775Z,46.90
2022-11-21T03:54:04.322Z,46.90
2022-11-21T03:56:32.810Z,46.80
2022-11-21T03:59:01.006Z,46.70
2022-11-21T04:01:33.836Z,46.80
2022-11-21T04:04:05.978Z,46.70
2022-11-21T04:06:34.080Z,46.70
2022-11-21T04:09:02.163Z,46.70
2022-11-21T04:11:30.222Z,46.00
2022-11-21T04:13:58.265Z,46.20
2022-11-21T04:16:26.379Z,46.50
2022-11-21T04:18:54.467Z,46.50
2022-11-21T04:21:23.914Z,46.60
2022-11-21T04:23:51.958Z,46.50
2022-11-21T04:26:20.035Z,46.40
2022-11-21T04:28:48.323Z,46.40
2022-11-21T04:31:16.398Z,46.40
2022-11-21T04:33:44.432Z,46.30
2022-11-21T04:36:12.490Z,46.30
2022-11-21T04:38:41.901Z,46.20
2022-11-21T04:41:09.980Z,46.10
2022-11-21T04:43:38.239Z,46.20
2022-11-21T04:46:06.389Z,46.20
2022-11-21T04:48:34.448Z,46.30
2022-11-21T04:51:02.523Z,46.40
2022-11-21T04:53:30.578Z,46.30
2022-11-21T04:56:00.186Z,46.30
2022-11-21T04:58:28.230Z,46.10
2022-11-21T05:00:56.342Z,46.40
2022-11-21T05:03:24.445Z,46.10
2022-11-21T05:05:52.494Z,45.80
2022-11-21T05:08:20.519Z,46.00
2022-11-21T05:11:06.047Z,49.30
2022-11-21T05:13:35.455Z,45.80
2022-11-21T05:16:03.574Z,45.40
2022-11-21T05:18:31.929Z,57.10
2022-11-21T05:21:00.122Z,56.20
2022-11-21T05:23:28.159Z,46.70
2022-11-21T05:25:56.241Z,45.30
2022-11-21T05:28:24.279Z,45.30
2022-11-21T05:30:53.812Z,46.90
2022-11-21T05:33:21.958Z,46.50
2022-11-21T05:35:50.038Z,47.00
2022-11-21T05:38:18.101Z,46.50
2022-11-21T05:40:46.183Z,46.40
2022-11-21T05:43:31.691Z,46.50
2022-11-21T05:46:01.140Z,46.50
2022-11-21T05:48:29.211Z,46.60
2022-11-21T05:50:57.310Z,46.70
2022-11-21T05:53:25.329Z,46.60
2022-11-21T05:55:53.422Z,46.60
2022-11-21T05:58:21.594Z,46.60
2022-11-21T06:00:49.636Z,46.70
2022-11-21T06:03:30.985Z,46.70
2022-11-21T06:06:04.094Z,46.70
2022-11-21T06:08:33.721Z,46.70
2022-11-21T06:11:02.166Z,46.70
2022-11-21T06:13:30.278Z,46.70
2022-11-21T06:16:02.134Z,46.60
2022-11-21T06:18:34.237Z,46.60
2022-11-21T06:21:03.359Z,46.50
2022-11-21T06:23:31.595Z,46.50
2022-11-21T06:26:00.326Z,46.50
2022-11-21T06:28:29.078Z,46.50
2022-11-21T06:30:57.878Z,46.40
2022-11-21T06:33:25.959Z,46.50
2022-11-21T06:35:55.639Z,46.30
2022-11-21T06:38:23.723Z,46.30
2022-11-21T06:40:51.769Z,46.30
2022-11-21T06:43:19.865Z,46.20
2022-11-21T06:45:47.919Z,45.90
2022-11-21T06:48:16.017Z,46.00
2022-11-21T06:50:44.055Z,45.90
2022-11-21T06:53:13.478Z,46.00
2022-11-21T06:55:41.507Z,45.90
2022-11-21T06:58:09.603Z,46.00
2022-11-21T07:00:37.654Z,46.00
2022-11-21T07:03:05.803Z,46.60
2022-11-21T07:05:34.724Z,46.00
2022-11-21T07:08:03.659Z,45.90
2022-11-21T07:10:33.074Z,46.00
2022-11-21T07:13:19.141Z,45.90
2022-11-21T07:15:48.604Z,45.90
2022-11-21T07:18:16.932Z,45.80
2022-11-21T07:20:45.178Z,45.70
2022-11-21T07:23:13.251Z,45.70
2022-11-21T07:25:42.940Z,45.50
2022-11-21T07:28:11.381Z,45.50
2022-11-21T07:30:39.435Z,45.30
2022-11-21T07:33:09.325Z,45.40
2022-11-21T07:35:37.591Z,45.50
2022-11-21T07:38:05.952Z,45.50
2022-11-21T07:40:34.795Z,45.40
2022-11-21T07:43:10.516Z,45.40
2022-11-21T07:45:39.247Z,45.40
2022-11-21T07:48:08.758Z,45.30
2022-11-21T07:50:37.241Z,45.00
2022-11-21T07:53:07.087Z,45.10
2022-11-21T07:55:40.311Z,45.00
2022-11-21T07:58:12.276Z,45.00
2022-11-21T08:00:42.779Z,45.00
2022-11-21T08:03:12.687Z,44.90
2022-11-21T08:05:41.988Z,44.90
2022-11-21T08:08:10.788Z,45.00
2022-11-21T08:10:39.763Z,44.80
2022-11-21T08:13:09.295Z,45.50
2022-11-21T08:15:37.591Z,44.80
2022-11-21T08:18:09.946Z,44.80
2022-11-21T08:20:38.229Z,44.60
2022-11-21T08:23:07.142Z,44.80
2022-11-21T08:25:35.740Z,44.80
2022-11-21T08:28:04.038Z,44.80
2022-11-21T08:30:34.398Z,44.80
2022-11-21T08:33:03.062Z,44.70
2022-11-21T08:35:31.185Z,44.70
2022-11-21T08:37:59.891Z,45.30
2022-11-21T08:40:29.829Z,44.60
2022-11-21T08:42:58.665Z,44.50
2022-11-21T08:45:26.984Z,44.60
2022-11-21T08:47:56.667Z,44.60
2022-11-21T08:50:25.508Z,44.60
2022-11-21T08:52:53.658Z,44.70
2022-11-21T08:55:23.280Z,44.70
2022-11-21T08:57:51.392Z,44.70
2022-11-21T09:00:19.771Z,44.60
2022-11-21T09:02:47.817Z,44.60
2022-11-21T09:05:17.326Z,44.50
2022-11-21T09:07:45.487Z,44.50
2022-11-21T09:10:13.609Z,44.50
2022-11-21T09:12:41.686Z,44.80
2022-11-21T09:15:43.651Z,45.10
2022-11-21T09:18:12.981Z,45.20
2022-11-21T09:20:44.635Z,45.30
2022-11-21T09:23:15.142Z,45.30
2022-11-21T09:25:44.223Z,45.20
2022-11-21T09:28:14.456Z,45.20
2022-11-21T09:30:43.842Z,45.20
2022-11-21T09:33:13.917Z,45.20
2022-11-21T09:35:43.205Z,45.20
2022-11-21T09:38:11.437Z,45.20
2022-11-21T09:40:45.143Z,45.20
2022-11-21T09:43:36.353Z,45.20
2022-11-21T09:46:11.172Z,45.20
2022-11-21T09:48:46.615Z,44.90
2022-11-21T09:51:19.422Z,44.90
2022-11-21T09:53:55.792Z,45.00
2022-11-21T09:56:24.679Z,44.80
2022-11-21T09:59:06.699Z,44.70
2022-11-21T10:01:35.250Z,44.50
2022-11-21T10:04:04.702Z,44.40
2022-11-21T10:06:39.874Z,44.50
2022-11-21T10:09:14.409Z,44.80
2022-11-21T10:12:07.045Z,44.80
2022-11-21T10:14:48.642Z,44.80
2022-11-21T10:17:24.083Z,45.00
2022-11-21T10:20:15.779Z,45.10
2022-11-21T10:23:01.456Z,45.50
2022-11-21T10:25:34.224Z,45.60
2022-11-21T10:28:07.772Z,45.50
2022-11-21T10:30:36.813Z,45.60
2022-11-21T10:33:06.848Z,45.60
2022-11-21T10:35:40.812Z,46.00
2022-11-21T10:38:21.979Z,45.10
2022-11-21T10:40:53.706Z,44.30
2022-11-21T10:43:51.609Z,44.10
2022-11-21T10:46:19.738Z,44.50
2022-11-21T10:48:54.956Z,44.90
2022-11-21T10:51:36.136Z,45.40
2022-11-21T10:54:28.071Z,45.20
2022-11-21T10:57:00.835Z,45.10
2022-11-21T10:59:31.464Z,45.60
2022-11-21T11:02:01.827Z,46.20
2022-11-21T11:04:36.901Z,46.40
2022-11-21T11:07:24.040Z,46.70
2022-11-21T11:09:54.353Z,46.80
2022-11-21T11:12:45.331Z,47.30
2022-11-21T11:15:19.531Z,47.20
2022-11-21T11:17:52.519Z,47.70
2022-11-21T11:20:36.261Z,47.80
2022-11-21T11:23:27.093Z,48.00
2022-11-21T11:25:58.075Z,48.10
2022-11-21T11:28:34.612Z,48.50
2022-11-21T11:31:02.700Z,48.50
2022-11-21T11:33:37.022Z,48.80
2022-11-21T11:36:15.156Z,49.10
2022-11-21T11:38:48.446Z,49.00
2022-11-21T11:41:57.594Z,49.20
2022-11-21T11:44:50.410Z,49.20
2022-11-21T11:47:33.147Z,49.40
2022-11-21T11:50:12.093Z,49.40
2022-11-21T11:52:53.395Z,49.10
2022-11-21T11:55:26.946Z,49.00
2022-11-21T11:58:00.526Z,49.00
2022-11-21T12:00:36.306Z,48.90
2022-11-21T12:03:13.138Z,48.80
2022-11-21T12:05:53.097Z,48.90
2022-11-21T12:11:41.193Z,48.70
2022-11-21T12:14:39.462Z,47.60
2022-11-21T12:17:10.718Z,46.40
2022-11-21T12:19:40.689Z,47.30
2022-11-21T12:22:11.715Z,47.60
2022-11-21T12:24:43.008Z,47.80
2022-11-21T12:27:25.737Z,47.90
2022-11-21T12:30:36.375Z,48.00
2022-11-21T12:33:09.196Z,48.20
2022-11-21T12:36:17.459Z,48.60
2022-11-21T12:39:10.460Z,48.70
2022-11-21T12:42:00.835Z,49.60
2022-11-21T12:44:42.929Z,49.20
2022-11-21T12:47:28.770Z,49.40
2022-11-21T12:50:21.995Z,49.30
2022-11-21T12:53:10.835Z,48.90
2022-11-21T12:55:41.019Z,49.30
2022-11-21T12:58:22.486Z,49.40
2022-11-21T13:01:21.136Z,49.40
2022-11-21T13:04:00.195Z,49.20
2022-11-21T13:06:30.346Z,49.10
2022-11-21T13:09:02.369Z,49.40
2022-11-21T13:11:56.886Z,49.60
2022-11-21T13:14:31.123Z,49.80
2022-11-21T13:17:21.691Z,49.80
2022-11-21T13:19:55.729Z,49.60
2022-11-21T13:22:53.479Z,49.70
2022-11-21T13:25:55.499Z,50.00
2022-11-21T13:28:38.857Z,50.30
2022-11-21T13:31:40.738Z,50.10
2022-11-21T13:34:37.018Z,49.60
2022-11-21T13:37:07.060Z,50.10
2022-11-21T13:39:39.371Z,49.50
2022-11-21T13:42:31.891Z,49.10
2022-11-21T13:45:01.040Z,48.20
2022-11-21T13:48:05.689Z,47.50
2022-11-21T13:50:55.738Z,46.90
2022-11-21T13:53:58.436Z,46.50
2022-11-21T13:56:36.250Z,46.10
2022-11-21T13:59:27.073Z,45.60
2022-11-21T14:02:30.875Z,45.00
2022-11-21T14:05:15.104Z,42.50
2022-11-21T14:07:44.827Z,42.80
2022-11-21T14:10:32.030Z,43.10
2022-11-21T14:13:01.478Z,43.50
2022-11-21T14:15:39.183Z,42.10
2022-11-21T14:18:07.495Z,42.50
2022-11-21T14:20:50.081Z,43.30
2022-11-21T14:23:20.009Z,43.90
2022-11-21T14:25:50.258Z,44.10
2022-11-21T14:28:23.683Z,44.30
2022-11-21T14:30:58.260Z,44.40
2022-11-21T14:33:28.826Z,44.60
2022-11-21T14:36:01.416Z,44.70
2022-11-21T14:38:31.616Z,44.80
2022-11-21T14:41:23.274Z,45.00
2022-11-21T14:43:51.560Z,45.10
2022-11-21T14:46:22.432Z,45.20
2022-11-21T14:48:52.056Z,45.30
2022-11-21T14:51:23.771Z,45.50
2022-11-21T14:53:53.970Z,46.20
2022-11-21T14:56:25.439Z,45.90
2022-11-21T14:58:55.356Z,46.00
2022-11-21T15:01:24.496Z,45.90
2022-11-21T15:03:59.621Z,46.00
2022-11-21T15:06:29.726Z,46.40
2022-11-21T15:11:52.305Z,42.80
2022-11-21T15:14:25.887Z,41.70
2022-11-21T15:16:55.983Z,43.40
2022-11-21T15:19:26.810Z,43.90
2022-11-21T15:21:58.227Z,43.90
2022-11-21T15:24:37.660Z,43.90
2022-11-21T15:27:34.925Z,44.00
2022-11-21T15:30:06.346Z,44.20
2022-11-21T15:32:34.409Z,44.10
2022-11-21T15:35:31.933Z,44.10
2022-11-21T15:38:18.111Z,44.60
2022-11-21T15:41:04.753Z,44.10
2022-11-21T15:43:40.632Z,44.10
2022-11-21T15:46:17.028Z,44.10
2022-11-21T15:48:47.362Z,44.40
2022-11-21T15:51:15.800Z,43.40
2022-11-21T15:53:44.197Z,44.00
2022-11-21T15:56:21.234Z,44.30
2022-11-21T15:58:52.245Z,44.20
2022-11-21T16:01:21.887Z,44.40
2022-11-21T16:03:51.374Z,44.80
2022-11-21T16:06:20.309Z,45.50
2022-11-21T16:08:48.428Z,45.70
2022-11-21T16:11:21.912Z,46.20
2022-11-21T16:13:51.921Z,46.60
2022-11-21T16:16:20.237Z,47.00
2022-11-21T16:18:48.714Z,46.60
2022-11-21T16:21:17.100Z,47.20
2022-11-21T16:23:45.682Z,47.80
2022-11-21T16:26:13.750Z,48.20
2022-11-21T16:28:42.147Z,48.30
2022-11-21T16:31:19.956Z,48.50
2022-11-21T16:33:48.062Z,49.30
2022-11-21T16:36:21.728Z,50.00
2022-11-21T16:38:50.264Z,50.40
2022-11-21T16:41:19.362Z,50.60
2022-11-21T16:43:49.799Z,50.60
2022-11-21T16:46:20.244Z,50.60
2022-11-21T16:48:48.823Z,50.80
2022-11-21T16:51:18.583Z,50.90
2022-11-21T16:53:48.397Z,51.20
2022-11-21T16:56:17.191Z,51.30
2022-11-21T16:58:45.549Z,51.50
2022-11-21T17:01:15.394Z,51.90
2022-11-21T17:03:47.362Z,51.90
2022-11-21T17:06:17.423Z,52.00
2022-11-21T17:08:45.361Z,52.10
2022-11-21T17:11:14.669Z,51.90
2022-11-21T17:13:43.296Z,51.80
2022-11-21T17:16:12.511Z,51.60
2022-11-21T17:18:40.938Z,51.50
2022-11-21T17:21:12.888Z,51.60
2022-11-21T17:23:44.012Z,51.50
2022-11-21T17:26:14.159Z,51.60
2022-11-21T17:28:45.648Z,51.70
2022-11-21T17:31:15.389Z,52.20
2022-11-21T17:33:47.072Z,52.50
2022-11-21T17:36:16.731Z,52.80
2022-11-21T17:38:47.070Z,52.90
2022-11-21T17:41:16.835Z,52.90
2022-11-21T17:43:45.288Z,53.20
2022-11-21T17:46:14.509Z,53.30
2022-11-21T17:48:43.045Z,53.30
2022-11-21T17:51:13.542Z,51.60
2022-11-21T17:53:44.750Z,48.10
2022-11-21T17:56:15.169Z,49.60
2022-11-21T17:58:43.243Z,50.20
2022-11-21T18:01:14.003Z,50.30
2022-11-21T18:03:42.456Z,50.30
2022-11-21T18:06:11.945Z,50.20
2022-11-21T18:08:43.761Z,50.30
2022-11-21T18:11:13.603Z,49.20
2022-11-21T18:13:42.514Z,49.50
2022-11-21T18:16:12.467Z,47.80
2022-11-21T18:18:41.033Z,46.50
2022-11-21T18:21:11.504Z,47.30
2022-11-21T18:23:40.123Z,47.70
2022-11-21T18:26:12.583Z,47.80
2022-11-21T18:28:40.983Z,48.60
2022-11-21T18:31:10.983Z,48.10
2022-11-21T18:33:39.189Z,48.10
2022-11-21T18:36:08.887Z,48.30
2022-11-21T18:39:00.552Z,48.30
2022-11-21T18:41:28.936Z,48.40
2022-11-21T18:43:58.673Z,48.50
2022-11-21T18:46:28.444Z,48.60
2022-11-21T18:49:12.710Z,48.80
2022-11-21T18:51:41.206Z,48.80
2022-11-21T18:54:10.600Z,48.80
2022-11-21T18:56:40.868Z,48.80
2022-11-21T18:59:09.041Z,48.90
2022-11-21T19:01:39.413Z,49.00
2022-11-21T19:04:07.911Z,49.00
2022-11-21T19:06:36.236Z,48.90
2022-11-21T19:09:05.447Z,48.80
2022-11-21T19:11:33.504Z,48.80
2022-11-21T19:14:02.922Z,48.70
2022-11-21T19:16:34.115Z,48.60
2022-11-21T19:21:50.755Z,48.30
2022-11-21T19:24:19.478Z,48.20
2022-11-21T19:26:50.500Z,47.90
2022-11-21T19:29:20.200Z,48.00
2022-11-21T19:31:48.288Z,47.90
2022-11-21T19:34:17.072Z,47.90
2022-11-21T19:36:45.264Z,45.90
2022-11-21T19:39:13.734Z,45.00
2022-11-21T19:41:41.780Z,44.00
2022-11-21T19:44:11.039Z,44.30
2022-11-21T19:46:40.781Z,44.70
2022-11-21T19:49:11.173Z,44.90
2022-11-21T19:51:41.432Z,44.20
2022-11-21T19:54:11.947Z,43.90
2022-11-21T19:56:40.669Z,44.00
2022-11-21T19:59:11.125Z,44.00
2022-11-21T20:01:41.249Z,43.90
2022-11-21T20:04:09.409Z,44.00
2022-11-21T20:06:39.984Z,44.00
2022-11-21T20:09:09.970Z,44.00
2022-11-21T20:11:38.133Z,44.00
2022-11-21T20:14:06.314Z,44.20
2022-11-21T20:16:36.212Z,44.10
2022-11-21T20:19:07.909Z,44.00
2022-11-21T20:21:36.080Z,44.30
2022-11-21T20:24:04.791Z,44.50
2022-11-21T20:26:33.264Z,44.80
2022-11-21T20:29:01.592Z,45.30
2022-11-21T20:31:30.762Z,45.50
2022-11-21T20:34:00.845Z,45.60
2022-11-21T20:36:31.307Z,46.00
2022-11-21T20:39:00.710Z,46.00
2022-11-21T20:41:30.020Z,46.30
2022-11-21T20:46:48.516Z,45.70
2022-11-21T20:49:16.768Z,45.60
2022-11-21T20:54:34.358Z,45.70
2022-11-21T20:57:02.432Z,45.80
2022-11-21T20:59:30.680Z,45.80
2022-11-21T21:01:58.987Z,45.80
2022-11-21T21:04:27.152Z,45.80
2022-11-21T21:06:56.571Z,45.80
2022-11-21T21:09:24.661Z,45.90
2022-11-21T21:11:53.578Z,46.00
2022-11-21T21:14:22.379Z,46.00
2022-11-21T21:16:51.171Z,46.10
2022-11-21T21:19:19.381Z,46.00
2022-11-21T21:21:47.398Z,46.10
2022-11-21T21:24:17.284Z,46.10
2022-11-21T21:26:46.021Z,46.20
2022-11-21T21:29:16.182Z,46.30
2022-11-21T21:31:50.577Z,46.40
2022-11-21T21:34:20.341Z,46.40
2022-11-21T21:36:48.601Z,46.40
2022-11-21T21:39:18.028Z,46.50
2022-11-21T21:41:47.008Z,46.50
2022-11-21T21:44:15.859Z,46.70
2022-11-21T21:46:44.206Z,46.70
2022-11-21T21:49:12.609Z,46.90
2022-11-21T21:51:41.376Z,46.90
2022-11-21T21:54:18.638Z,48.20
2022-11-21T21:56:47.288Z,48.90
2022-11-21T21:59:15.910Z,48.40
2022-11-21T22:01:44.182Z,48.70
2022-11-21T22:04:13.443Z,49.60
2022-11-21T22:06:41.639Z,47.80
2022-11-21T22:09:09.857Z,46.20
2022-11-21T22:11:40.111Z,45.80
2022-11-21T22:14:11.391Z,45.60
2022-11-21T22:16:39.702Z,47.00
2022-11-21T22:19:07.829Z,47.50
2022-11-21T22:21:37.796Z,47.70
2022-11-21T22:24:27.478Z,47.70
2022-11-21T22:26:57.030Z,47.80
2022-11-21T22:29:25.112Z,47.80
2022-11-21T22:31:53.243Z,47.70
2022-11-21T22:34:21.628Z,47.90
2022-11-21T22:36:49.716Z,47.90
2022-11-21T22:39:18.058Z,47.90
2022-11-21T22:41:46.287Z,47.90
2022-11-21T22:44:15.756Z,48.00
2022-11-21T22:46:43.831Z,48.70
2022-11-21T22:49:11.882Z,48.10
2022-11-21T22:51:39.975Z,48.20
2022-11-21T22:54:08.056Z,48.30
2022-11-21T22:56:36.532Z,48.30
2022-11-21T22:59:04.697Z,48.40
2022-11-21T23:01:35.147Z,48.40
2022-11-21T23:04:03.439Z,48.50
2022-11-21T23:06:31.580Z,48.50
2022-11-21T23:08:59.715Z,48.60
2022-11-21T23:11:29.135Z,48.60
2022-11-21T23:13:57.944Z,48.60
2022-11-21T23:16:26.858Z,48.60
2022-11-21T23:18:57.014Z,48.70
2022-11-21T23:21:25.294Z,48.60
2022-11-21T23:23:53.397Z,48.70
2022-11-21T23:26:21.598Z,48.70
2022-11-21T23:28:49.689Z,48.70
2022-11-21T23:31:17.815Z,48.70
2022-11-21T23:33:46.046Z,48.70
2022-11-21T23:36:15.479Z,49.20
2022-11-21T23:38:43.562Z,48.60
2022-11-21T23:41:11.695Z,49.10
2022-11-21T23:43:39.831Z,48.50
2022-11-21T23:46:07.885Z,48.50
2022-11-21T23:48:35.984Z,49.10
2022-11-21T23:51:04.023Z,49.20
2022-11-21T23:53:33.461Z,49.10
2022-11-21T23:56:01.532Z,49.10
2022-11-21T23:58:29.645Z,49.20
